createdAt,value
2023-03-13T00:01:00.807Z,100.00
2023-03-13T00:05:01.407Z,100.00
2023-03-13T00:09:02.102Z,100.00
2023-03-13T00:13:02.644Z,100.00
2023-03-13T00:17:01.886Z,100.00
2023-03-13T00:21:02.470Z,100.00
2023-03-13T00:25:01.791Z,100.00
2023-03-13T00:29:01.872Z,100.00
2023-03-13T00:33:08.897Z,100.00
2023-03-13T00:37:11.761Z,100.00
2023-03-13T00:41:12.879Z,100.00
2023-03-13T00:45:17.289Z,100.00
2023-03-13T00:49:16.893Z,100.00
2023-03-13T00:53:19.951Z,100.00
2023-03-13T00:57:21.986Z,100.00
2023-03-13T01:01:24.904Z,100.00
2023-03-13T01:05:24.852Z,100.00
2023-03-13T01:09:28.025Z,100.00
2023-03-13T01:13:22.407Z,100.00
2023-03-13T01:17:32.611Z,100.00
2023-03-13T01:21:32.989Z,100.00
2023-03-13T01:25:35.834Z,100.00
2023-03-13T01:29:35.830Z,100.00
2023-03-13T01:33:49.578Z,100.00
2023-03-13T01:37:52.829Z,100.00
2023-03-13T01:41:51.370Z,100.00
2023-03-13T01:45:52.607Z,100.00
2023-03-13T01:49:56.126Z,100.00
2023-03-13T01:54:13.874Z,100.00
2023-03-13T01:58:16.614Z,100.00
2023-03-13T02:02:15.869Z,100.00
2023-03-13T02:06:14.369Z,100.00
2023-03-13T02:10:08.959Z,100.00
2023-03-13T02:14:14.439Z,100.00
2023-03-13T02:18:14.960Z,100.00
2023-03-13T02:22:18.719Z,100.00
2023-03-13T02:26:18.945Z,100.00
2023-03-13T02:30:28.977Z,100.00
2023-03-13T02:34:29.055Z,100.00
2023-03-13T02:38:28.692Z,100.00
2023-03-13T02:42:22.932Z,100.00
2023-03-13T02:46:31.088Z,100.00
2023-03-13T02:50:32.979Z,100.00
2023-03-13T02:54:36.084Z,100.00
2023-03-13T02:58:35.650Z,100.00
2023-03-13T03:02:41.105Z,100.00
2023-03-13T03:06:35.167Z,100.00
2023-03-13T03:10:34.947Z,100.00
2023-03-13T03:14:45.053Z,100.00
2023-03-13T03:18:48.219Z,100.00
2023-03-13T03:22:48.143Z,100.00
2023-03-13T03:26:52.841Z,100.00
2023-03-13T03:30:57.211Z,100.00
2023-03-13T03:34:56.281Z,100.00
2023-03-13T03:38:51.529Z,100.00
2023-03-13T03:43:00.277Z,100.00
2023-03-13T03:47:09.512Z,100.00
2023-03-13T03:51:16.247Z,100.00
2023-03-13T03:55:18.330Z,100.00
2023-03-13T03:59:21.136Z,100.00
2023-03-13T04:03:22.067Z,100.00
2023-03-13T04:07:20.926Z,100.00
2023-03-13T04:11:24.168Z,100.00
2023-03-13T04:15:29.974Z,100.00
2023-03-13T04:19:32.181Z,100.00
2023-03-13T04:23:36.303Z,100.00
2023-03-13T04:27:35.295Z,100.00
2023-03-13T04:31:34.622Z,100.00
2023-03-13T04:36:05.429Z,100.00
2023-03-13T04:40:26.220Z,100.00
2023-03-13T04:44:35.203Z,100.00
2023-03-13T04:48:38.741Z,100.00
2023-03-13T04:52:54.321Z,100.00
2023-03-13T04:57:07.222Z,100.00
2023-03-13T05:01:29.851Z,100.00
2023-03-13T05:06:02.567Z,100.00
2023-03-13T05:10:17.982Z,100.00
2023-03-13T05:14:23.831Z,100.00
2023-03-13T05:18:29.250Z,100.00
2023-03-13T05:22:58.835Z,100.00
2023-03-13T05:27:04.550Z,100.00
2023-03-13T05:31:13.395Z,100.00
2023-03-13T05:35:13.357Z,100.00
2023-03-13T05:39:22.058Z,100.00
2023-03-13T05:43:10.357Z,100.00
2023-03-13T05:47:09.415Z,100.00
2023-03-13T05:51:23.620Z,100.00
2023-03-13T05:55:44.113Z,100.00
2023-03-13T06:00:13.374Z,100.00
2023-03-13T06:04:27.318Z,100.00
2023-03-13T06:08:32.833Z,100.00
2023-03-13T06:12:34.112Z,100.00
2023-03-13T06:16:31.713Z,100.00
2023-03-13T06:20:42.246Z,99.94
2023-03-13T06:24:39.368Z,96.09
2023-03-13T06:28:39.994Z,95.50
2023-03-13T06:32:31.673Z,88.04
2023-03-13T06:36:19.485Z,83.36
2023-03-13T06:40:05.847Z,81.38
2023-03-13T06:43:52.252Z,74.89
2023-03-13T06:47:39.348Z,72.14
2023-03-13T06:51:25.747Z,67.00
2023-03-13T06:55:12.252Z,64.24
2023-03-13T06:59:19.528Z,58.63
2023-03-13T07:03:16.308Z,53.96
2023-03-13T07:07:29.397Z,53.12
2023-03-13T07:11:32.811Z,51.64
2023-03-13T07:15:33.870Z,50.06
2023-03-13T07:19:34.535Z,50.31
2023-03-13T07:23:35.115Z,48.85
2023-03-13T07:27:31.842Z,47.25
2023-03-13T07:31:33.659Z,46.33
2023-03-13T07:35:30.323Z,46.05
2023-03-13T07:39:32.297Z,46.12
2023-03-13T07:43:29.834Z,44.89
2023-03-13T07:47:30.168Z,44.74
2023-03-13T07:51:40.775Z,45.17
2023-03-13T07:55:45.885Z,44.30
2023-03-13T07:59:42.892Z,44.57
2023-03-13T08:03:43.836Z,43.90
2023-03-13T08:07:46.711Z,43.50
2023-03-13T08:11:47.071Z,42.28
2023-03-13T08:15:44.041Z,40.47
2023-03-13T08:19:43.949Z,40.46
2023-03-13T08:23:40.617Z,39.70
2023-03-13T08:27:43.691Z,40.05
2023-03-13T08:31:39.817Z,40.04
2023-03-13T08:35:40.756Z,39.85
2023-03-13T08:39:43.614Z,38.53
2023-03-13T08:43:43.854Z,39.23
2023-03-13T08:47:47.557Z,41.15
2023-03-13T08:51:48.715Z,41.65
2023-03-13T08:55:51.543Z,42.24
2023-03-13T08:59:51.822Z,40.89
2023-03-13T09:03:54.595Z,40.10
2023-03-13T09:07:53.659Z,40.82
2023-03-13T09:11:52.255Z,39.66
2023-03-13T09:15:50.378Z,41.43
2023-03-13T09:20:01.726Z,42.33
2023-03-13T09:24:01.660Z,41.28
2023-03-13T09:28:04.377Z,39.43
2023-03-13T09:32:04.941Z,39.54
2023-03-13T09:36:09.742Z,38.60
2023-03-13T09:40:07.829Z,39.05
2023-03-13T09:44:07.165Z,38.34
2023-03-13T09:48:09.643Z,39.10
2023-03-13T09:52:16.184Z,39.24
2023-03-13T09:56:13.914Z,40.99
2023-03-13T10:00:16.751Z,39.43
2023-03-13T10:04:18.062Z,38.45
2023-03-13T10:08:18.529Z,38.83
2023-03-13T10:12:12.697Z,39.45
2023-03-13T10:16:13.526Z,40.21
2023-03-13T10:20:10.277Z,39.87
2023-03-13T10:24:11.138Z,38.19
2023-03-13T10:28:11.981Z,38.40
2023-03-13T10:32:12.499Z,38.98
2023-03-13T10:36:09.294Z,38.83
2023-03-13T10:40:07.788Z,38.46
2023-03-13T10:44:08.727Z,38.88
2023-03-13T10:48:09.063Z,38.41
2023-03-13T10:52:08.039Z,38.35
2023-03-13T10:56:08.400Z,39.45
2023-03-13T11:00:04.946Z,38.83
2023-03-13T11:04:03.429Z,38.55
2023-03-13T11:07:57.933Z,37.73
2023-03-13T11:12:00.456Z,38.05
2023-03-13T11:15:57.022Z,38.68
2023-03-13T11:19:57.727Z,38.40
2023-03-13T11:23:53.854Z,38.72
2023-03-13T11:27:54.388Z,38.80
2023-03-13T11:31:50.862Z,39.37
2023-03-13T11:35:54.350Z,39.50
2023-03-13T11:39:49.763Z,38.96
2023-03-13T11:43:48.170Z,38.96
2023-03-13T11:47:48.883Z,39.20
2023-03-13T11:51:49.343Z,40.17
2023-03-13T11:55:46.393Z,40.01
2023-03-13T11:59:48.210Z,40.50
2023-03-13T12:03:46.517Z,40.80
2023-03-13T12:07:46.143Z,41.14
2023-03-13T12:11:48.306Z,41.32
2023-03-13T12:15:48.409Z,41.55
2023-03-13T12:19:45.938Z,40.96
2023-03-13T12:23:46.212Z,41.81
2023-03-13T12:27:43.925Z,41.86
2023-03-13T12:31:46.430Z,41.99
2023-03-13T12:35:40.655Z,42.65
2023-03-13T12:39:45.221Z,43.00
2023-03-13T12:43:42.283Z,43.16
2023-03-13T12:47:42.825Z,43.07
2023-03-13T12:51:39.245Z,43.55
2023-03-13T12:55:39.919Z,42.79
2023-03-13T12:59:36.233Z,42.31
2023-03-13T13:03:34.226Z,42.55
2023-03-13T13:07:34.841Z,41.44
2023-03-13T13:11:35.670Z,41.62
2023-03-13T13:15:32.491Z,42.05
2023-03-13T13:19:33.412Z,42.69
2023-03-13T13:23:30.345Z,41.84
2023-03-13T13:27:29.095Z,42.49
2023-03-13T13:31:23.728Z,42.73
2023-03-13T13:35:24.207Z,42.10
2023-03-13T13:39:22.087Z,41.59
2023-03-13T13:43:22.808Z,41.68
2023-03-13T13:47:19.220Z,41.63
2023-03-13T13:51:19.795Z,41.67
2023-03-13T13:55:23.012Z,42.44
2023-03-13T13:59:27.488Z,42.64
2023-03-13T14:03:24.077Z,43.24
2023-03-13T14:07:25.024Z,42.35
2023-03-13T14:11:24.402Z,41.86
2023-03-13T14:15:24.719Z,42.44
2023-03-13T14:19:20.166Z,42.15
2023-03-13T14:23:19.416Z,41.99
2023-03-13T14:27:16.512Z,43.10
2023-03-13T14:31:17.215Z,42.44
2023-03-13T14:35:13.242Z,43.38
2023-03-13T14:39:13.589Z,43.64
2023-03-13T14:43:11.405Z,44.00
2023-03-13T14:47:10.761Z,44.37
2023-03-13T14:51:16.093Z,45.35
2023-03-13T14:55:17.307Z,45.91
2023-03-13T14:59:18.441Z,46.70
2023-03-13T15:03:18.634Z,47.16
2023-03-13T15:07:15.384Z,48.19
2023-03-13T15:11:18.030Z,49.51
2023-03-13T15:15:12.081Z,49.21
2023-03-13T15:19:16.588Z,49.74
2023-03-13T15:22:56.429Z,50.82
2023-03-13T15:26:52.484Z,51.12
2023-03-13T15:30:52.884Z,51.67
2023-03-13T15:34:49.377Z,52.20
2023-03-13T15:38:50.861Z,53.07
2023-03-13T15:42:45.245Z,54.08
2023-03-13T15:46:49.510Z,54.26
2023-03-13T15:50:47.507Z,54.62
2023-03-13T15:54:48.156Z,55.59
2023-03-13T15:58:45.521Z,57.11
2023-03-13T16:02:46.761Z,58.43
2023-03-13T16:06:41.442Z,59.59
2023-03-13T16:10:40.144Z,61.32
2023-03-13T16:14:40.852Z,61.62
2023-03-13T16:18:42.142Z,63.75
2023-03-13T16:22:40.354Z,65.80
2023-03-13T16:26:41.703Z,68.32
2023-03-13T16:30:38.539Z,70.32
2023-03-13T16:34:32.784Z,74.16
2023-03-13T16:38:19.143Z,75.17
2023-03-13T16:42:05.200Z,75.95
2023-03-13T16:45:53.668Z,77.89
2023-03-13T16:49:47.767Z,79.58
2023-03-13T16:53:41.642Z,80.30
2023-03-13T16:57:38.645Z,84.73
2023-03-13T17:01:39.190Z,88.07
2023-03-13T17:05:35.292Z,91.72
2023-03-13T17:09:39.482Z,95.72
2023-03-13T17:13:36.761Z,97.53
2023-03-13T17:17:38.046Z,100.00
2023-03-13T17:21:35.724Z,100.00
2023-03-13T17:25:31.952Z,100.00
2023-03-13T17:29:18.608Z,100.00
2023-03-13T17:33:04.813Z,100.00
2023-03-13T17:36:51.651Z,100.00
2023-03-13T17:40:37.452Z,100.00
2023-03-13T17:44:24.099Z,100.00
2023-03-13T17:48:10.316Z,100.00
2023-03-13T17:51:56.490Z,100.00
2023-03-13T17:55:48.562Z,100.00
2023-03-13T17:59:41.545Z,100.00
2023-03-13T18:03:42.233Z,100.00
2023-03-13T18:07:42.775Z,100.00
2023-03-13T18:11:44.567Z,100.00
2023-03-13T18:15:45.562Z,100.00
2023-03-13T18:19:50.900Z,100.00
2023-03-13T18:23:47.725Z,100.00
2023-03-13T18:27:44.898Z,100.00
2023-03-13T18:31:45.572Z,100.00
2023-03-13T18:35:31.875Z,100.00
2023-03-13T18:39:32.948Z,100.00
2023-03-13T18:43:30.879Z,100.00
2023-03-13T18:47:27.536Z,100.00
2023-03-13T18:51:30.345Z,100.00
2023-03-13T18:55:27.085Z,100.00
2023-03-13T18:59:27.709Z,100.00
2023-03-13T19:03:24.709Z,100.00
2023-03-13T19:07:29.296Z,99.71
2023-03-13T19:11:26.047Z,96.57
2023-03-13T19:15:30.732Z,94.08
2023-03-13T19:19:28.196Z,93.95
2023-03-13T19:23:29.759Z,92.71
2023-03-13T19:27:27.292Z,90.58
2023-03-13T19:31:27.782Z,89.31
2023-03-13T19:35:28.578Z,87.67
2023-03-13T19:39:29.779Z,86.50
2023-03-13T19:43:28.435Z,85.49
2023-03-13T19:47:29.886Z,85.27
2023-03-13T19:51:28.042Z,85.70
2023-03-13T19:55:28.779Z,85.29
2023-03-13T19:59:28.836Z,84.32
2023-03-13T20:03:34.762Z,89.64
2023-03-13T20:07:32.972Z,92.78
2023-03-13T20:11:33.860Z,92.37
2023-03-13T20:15:43.526Z,92.71
2023-03-13T20:19:44.693Z,93.45
2023-03-13T20:23:42.499Z,93.99
2023-03-13T20:27:42.709Z,94.16
2023-03-13T20:31:42.835Z,94.79
2023-03-13T20:35:47.896Z,95.21
2023-03-13T20:39:47.963Z,95.25
2023-03-13T20:43:51.911Z,95.82
2023-03-13T20:47:52.813Z,97.11
2023-03-13T20:51:55.909Z,98.88
2023-03-13T20:55:56.284Z,100.00
2023-03-13T20:59:57.770Z,100.00
2023-03-13T21:03:59.817Z,100.00
2023-03-13T21:08:00.848Z,100.00
2023-03-13T21:12:02.702Z,99.25
2023-03-13T21:16:03.443Z,98.77
2023-03-13T21:20:02.025Z,98.22
2023-03-13T21:24:04.776Z,97.73
2023-03-13T21:28:03.934Z,98.59
2023-03-13T21:32:06.471Z,95.49
2023-03-13T21:36:06.268Z,93.74
2023-03-13T21:40:08.852Z,90.38
2023-03-13T21:44:09.016Z,87.14
2023-03-13T21:48:10.890Z,84.68
2023-03-13T21:52:09.029Z,83.68
2023-03-13T21:56:11.910Z,80.86
2023-03-13T22:00:17.053Z,79.98
2023-03-13T22:04:18.834Z,80.87
2023-03-13T22:08:20.051Z,81.48
2023-03-13T22:12:22.481Z,81.54
2023-03-13T22:16:22.103Z,80.07
2023-03-13T22:20:31.972Z,80.73
2023-03-13T22:24:32.269Z,79.03
2023-03-13T22:28:34.498Z,79.15
2023-03-13T22:32:33.152Z,79.26
2023-03-13T22:36:35.987Z,78.66
2023-03-13T22:40:36.096Z,77.54
2023-03-13T22:44:39.642Z,77.27
2023-03-13T22:48:38.936Z,75.43
2023-03-13T22:52:41.651Z,73.74
2023-03-13T22:56:43.099Z,72.95
2023-03-13T23:00:46.130Z,71.48
2023-03-13T23:04:45.089Z,71.53
2023-03-13T23:08:50.043Z,70.75
2023-03-13T23:12:48.185Z,70.56
2023-03-13T23:16:51.604Z,70.56
2023-03-13T23:20:50.132Z,68.70
2023-03-13T23:24:54.221Z,68.47
2023-03-13T23:28:53.208Z,70.93
2023-03-13T23:32:55.531Z,68.68
2023-03-13T23:36:55.160Z,68.85
2023-03-13T23:41:02.580Z,68.63
2023-03-13T23:45:02.217Z,68.42
2023-03-13T23:49:05.517Z,67.10
2023-03-13T23:53:04.224Z,65.81
2023-03-13T23:57:06.721Z,64.35
